createdAt,value
2022-11-12T00:02:59.225Z,79.71
2022-11-12T00:06:03.371Z,79.52
2022-11-12T00:09:07.324Z,79.48
2022-11-12T00:12:11.140Z,79.79
2022-11-12T00:15:15.443Z,79.31
2022-11-12T00:18:19.386Z,79.18
2022-11-12T00:21:23.561Z,78.93
2022-11-12T00:24:27.236Z,78.82
2022-11-12T00:27:35.258Z,79.16
2022-11-12T00:30:40.638Z,79.05
2022-11-12T00:33:45.019Z,78.48
2022-11-12T00:36:49.240Z,78.50
2022-11-12T00:39:52.945Z,78.43
2022-11-12T00:42:56.914Z,78.49
2022-11-12T00:46:00.970Z,78.40
2022-11-12T00:49:05.123Z,78.35
2022-11-12T00:52:09.129Z,78.76
2022-11-12T00:55:12.832Z,78.40
2022-11-12T00:58:16.547Z,78.23
2022-11-12T01:01:21.483Z,78.36
2022-11-12T01:04:25.460Z,78.02
2022-11-12T01:07:29.531Z,77.48
2022-11-12T01:10:36.273Z,76.64
2022-11-12T01:13:44.381Z,75.84
2022-11-12T01:16:48.653Z,75.46
2022-11-12T01:19:52.908Z,75.65
2022-11-12T01:22:57.326Z,75.13
2022-11-12T01:26:06.738Z,74.73
2022-11-12T01:29:10.486Z,74.77
2022-11-12T01:32:14.313Z,74.45
2022-11-12T01:35:18.252Z,74.23
2022-11-12T01:38:22.301Z,74.20
2022-11-12T01:41:30.354Z,74.07
2022-11-12T01:44:38.459Z,74.18
2022-11-12T01:47:44.360Z,73.70
2022-11-12T01:50:48.787Z,73.71
2022-11-12T01:53:56.506Z,73.86
2022-11-12T01:57:01.765Z,73.03
2022-11-12T02:00:10.563Z,72.22
2022-11-12T02:03:20.498Z,72.45
2022-11-12T02:06:25.023Z,72.59
2022-11-12T02:09:30.819Z,71.98
2022-11-12T02:12:53.293Z,71.99
2022-11-12T02:15:58.117Z,71.88
2022-11-12T02:19:04.283Z,71.91
2022-11-12T02:22:08.204Z,70.74
2022-11-12T02:25:16.803Z,70.82
2022-11-12T02:28:21.435Z,70.50
2022-11-12T02:31:25.329Z,70.96
2022-11-12T02:34:28.887Z,70.48
2022-11-12T02:37:32.486Z,70.95
2022-11-12T02:40:36.633Z,70.79
2022-11-12T02:43:41.501Z,71.08
2022-11-12T02:46:45.407Z,70.75
2022-11-12T02:49:49.115Z,71.08
2022-11-12T02:52:52.956Z,71.40
2022-11-12T02:55:57.105Z,71.58
2022-11-12T02:59:01.465Z,71.27
2022-11-12T03:02:05.306Z,72.03
2022-11-12T03:05:11.090Z,71.73
2022-11-12T03:08:15.134Z,71.81
2022-11-12T03:11:18.959Z,71.71
2022-11-12T03:14:23.972Z,71.76
2022-11-12T03:17:28.164Z,72.45
2022-11-12T03:20:31.834Z,72.07
2022-11-12T03:23:35.722Z,72.21
2022-11-12T03:26:39.612Z,72.14
2022-11-12T03:29:43.914Z,72.91
2022-11-12T03:32:47.908Z,72.71
2022-11-12T03:35:51.621Z,73.37
2022-11-12T03:38:55.593Z,73.61
2022-11-12T03:41:59.361Z,73.72
2022-11-12T03:45:03.646Z,73.07
2022-11-12T03:48:07.348Z,73.38
2022-11-12T03:51:16.160Z,73.56
2022-11-12T03:54:20.101Z,73.55
2022-11-12T03:57:23.949Z,73.21
2022-11-12T04:00:28.936Z,73.04
2022-11-12T04:03:32.944Z,73.36
2022-11-12T04:06:55.479Z,74.00
2022-11-12T04:09:59.428Z,74.27
2022-11-12T04:13:21.911Z,74.83
2022-11-12T04:16:44.365Z,75.16
2022-11-12T04:20:07.135Z,75.07
2022-11-12T04:23:11.115Z,75.00
2022-11-12T04:26:24.172Z,75.16
2022-11-12T04:29:46.685Z,75.00
2022-11-12T04:32:55.024Z,74.76
2022-11-12T04:35:59.089Z,74.97
2022-11-12T04:39:03.214Z,75.22
2022-11-12T04:42:27.599Z,75.25
2022-11-12T04:45:31.611Z,75.56
2022-11-12T04:48:35.737Z,75.66
2022-11-12T04:51:58.289Z,75.67
2022-11-12T04:55:02.291Z,75.28
2022-11-12T04:58:06.369Z,75.21
2022-11-12T05:01:10.370Z,75.32
2022-11-12T05:04:14.915Z,75.18
2022-11-12T05:07:19.196Z,75.76
2022-11-12T05:10:23.228Z,75.71
2022-11-12T05:13:29.211Z,75.46
2022-11-12T05:16:33.450Z,75.69
2022-11-12T05:19:37.316Z,76.02
2022-11-12T05:22:47.817Z,76.35
2022-11-12T05:25:58.221Z,76.03
2022-11-12T05:29:07.556Z,76.04
2022-11-12T05:32:15.283Z,75.92
2022-11-12T05:35:19.379Z,76.18
2022-11-12T05:38:23.383Z,75.73
2022-11-12T05:41:36.064Z,76.07
2022-11-12T05:44:49.086Z,76.01
2022-11-12T05:47:52.812Z,75.99
2022-11-12T05:51:12.584Z,76.49
2022-11-12T05:54:18.435Z,76.38
2022-11-12T05:57:22.644Z,76.68
2022-11-12T06:00:26.691Z,76.68
2022-11-12T06:03:30.689Z,76.77
2022-11-12T06:06:34.541Z,77.11
2022-11-12T06:09:38.759Z,77.67
2022-11-12T06:12:42.544Z,77.30
2022-11-12T06:15:46.197Z,77.68
2022-11-12T06:18:50.225Z,77.44
2022-11-12T06:21:53.918Z,77.85
2022-11-12T06:24:58.571Z,77.89
2022-11-12T06:28:02.487Z,78.12
2022-11-12T06:31:06.674Z,78.17
2022-11-12T06:34:12.432Z,78.45
2022-11-12T06:37:16.116Z,77.94
2022-11-12T06:40:20.336Z,77.94
2022-11-12T06:43:25.352Z,77.93
2022-11-12T06:46:29.765Z,77.70
2022-11-12T06:49:33.853Z,77.60
2022-11-12T06:52:37.598Z,77.83
2022-11-12T06:55:41.429Z,77.97
2022-11-12T06:58:45.365Z,77.74
2022-11-12T07:01:49.309Z,77.18
2022-11-12T07:04:53.477Z,77.56
2022-11-12T07:07:57.448Z,77.21
2022-11-12T07:11:01.992Z,77.28
2022-11-12T07:14:06.793Z,76.84
2022-11-12T07:17:10.393Z,76.49
2022-11-12T07:20:14.720Z,76.84
2022-11-12T07:23:18.661Z,77.16
2022-11-12T07:26:25.635Z,76.67
2022-11-12T07:29:46.378Z,75.90
2022-11-12T07:32:52.270Z,76.08
2022-11-12T07:36:07.684Z,76.03
2022-11-12T07:39:13.252Z,75.84
2022-11-12T07:42:17.284Z,75.63
2022-11-12T07:45:21.157Z,75.61
2022-11-12T07:48:25.220Z,74.79
2022-11-12T07:51:30.322Z,73.81
2022-11-12T07:54:34.639Z,74.05
2022-11-12T07:57:38.493Z,73.81
2022-11-12T08:00:42.267Z,73.78
2022-11-12T08:03:46.115Z,73.09
2022-11-12T08:06:50.012Z,73.73
2022-11-12T08:09:55.289Z,73.50
2022-11-12T08:12:59.201Z,73.69
2022-11-12T08:16:03.458Z,73.19
2022-11-12T08:19:07.497Z,73.33
2022-11-12T08:22:11.427Z,73.04
2022-11-12T08:25:15.805Z,72.94
2022-11-12T08:28:19.684Z,72.14
2022-11-12T08:31:23.853Z,72.08
2022-11-12T08:34:27.754Z,72.14
2022-11-12T08:37:31.625Z,71.61
2022-11-12T08:40:35.665Z,70.95
2022-11-12T08:43:43.008Z,70.42
2022-11-12T08:46:46.783Z,70.51
2022-11-12T08:49:50.640Z,70.18
2022-11-12T08:52:59.986Z,68.99
2022-11-12T08:56:04.028Z,69.16
2022-11-12T08:59:08.353Z,68.55
2022-11-12T09:02:13.784Z,67.56
2022-11-12T09:05:17.819Z,67.62
2022-11-12T09:08:24.956Z,66.95
2022-11-12T09:11:29.527Z,67.12
2022-11-12T09:14:33.918Z,67.48
2022-11-12T09:17:37.534Z,67.55
2022-11-12T09:20:41.936Z,67.45
2022-11-12T09:23:46.017Z,67.62
2022-11-12T09:26:53.108Z,68.00
2022-11-12T09:29:57.373Z,68.65
2022-11-12T09:33:01.349Z,68.71
2022-11-12T09:36:05.840Z,68.59
2022-11-12T09:39:09.641Z,68.82
2022-11-12T09:42:17.940Z,69.27
2022-11-12T09:45:30.141Z,68.98
2022-11-12T09:48:44.330Z,68.92
2022-11-12T09:51:52.953Z,69.16
2022-11-12T09:55:17.135Z,69.21
2022-11-12T09:58:21.009Z,68.19
2022-11-12T10:01:44.585Z,67.65
2022-11-12T10:05:07.253Z,66.05
2022-11-12T10:08:32.398Z,67.17
2022-11-12T10:12:16.714Z,67.73
2022-11-12T10:15:54.488Z,68.93
2022-11-12T10:19:36.727Z,69.82
2022-11-12T10:22:49.519Z,70.14
2022-11-12T10:25:58.080Z,70.12
2022-11-12T10:29:11.323Z,70.32
2022-11-12T10:32:16.572Z,70.70
2022-11-12T10:35:22.645Z,70.55
2022-11-12T10:38:28.097Z,69.95
2022-11-12T10:41:33.954Z,70.15
2022-11-12T10:44:39.718Z,70.66
2022-11-12T10:47:46.750Z,69.75
2022-11-12T10:50:50.890Z,69.89
2022-11-12T10:53:55.296Z,70.00
2022-11-12T10:57:18.886Z,69.97
2022-11-12T11:00:23.445Z,70.10
2022-11-12T11:03:37.375Z,70.38
2022-11-12T11:06:41.992Z,70.08
2022-11-12T11:10:22.880Z,70.41
2022-11-12T11:13:27.769Z,70.07
2022-11-12T11:16:48.678Z,69.94
2022-11-12T11:19:52.341Z,69.87
2022-11-12T11:22:59.732Z,70.00
2022-11-12T11:26:32.332Z,68.89
2022-11-12T11:29:58.039Z,69.33
2022-11-12T11:33:02.085Z,69.35
2022-11-12T11:36:33.140Z,69.76
2022-11-12T11:40:00.757Z,70.99
2022-11-12T11:43:07.853Z,70.26
2022-11-12T11:46:28.388Z,70.16
2022-11-12T11:49:47.616Z,69.87
2022-11-12T11:53:14.173Z,69.71
2022-11-12T11:56:25.748Z,70.16
2022-11-12T12:00:05.402Z,69.41
2022-11-12T12:03:21.969Z,68.80
2022-11-12T12:06:32.126Z,68.66
2022-11-12T12:09:47.590Z,68.92
2022-11-12T12:13:06.366Z,68.57
2022-11-12T12:16:31.791Z,67.65
2022-11-12T12:19:54.395Z,66.81
2022-11-12T12:23:41.009Z,66.66
2022-11-12T12:26:53.557Z,66.48
2022-11-12T12:30:03.871Z,66.30
2022-11-12T12:33:11.084Z,67.08
2022-11-12T12:36:20.328Z,67.93
2022-11-12T12:39:58.495Z,67.69
2022-11-12T12:43:20.170Z,67.44
2022-11-12T12:46:27.909Z,67.63
2022-11-12T12:49:36.883Z,67.00
2022-11-12T12:53:00.282Z,66.90
2022-11-12T12:56:14.595Z,66.76
2022-11-12T12:59:21.230Z,66.23
2022-11-12T13:02:25.704Z,66.71
2022-11-12T13:05:33.482Z,66.67
2022-11-12T13:08:37.683Z,66.69
2022-11-12T13:12:02.044Z,66.91
2022-11-12T13:15:13.891Z,67.22
2022-11-12T13:18:40.031Z,67.58
2022-11-12T13:21:44.402Z,67.86
2022-11-12T13:25:24.746Z,68.02
2022-11-12T13:28:29.017Z,68.33
2022-11-12T13:31:34.019Z,67.96
2022-11-12T13:34:38.414Z,68.01
2022-11-12T13:38:12.275Z,68.51
2022-11-12T13:41:41.482Z,68.27
2022-11-12T13:44:50.920Z,68.35
2022-11-12T13:47:57.842Z,68.59
2022-11-12T13:51:06.150Z,69.18
2022-11-12T13:54:33.702Z,69.38
2022-11-12T13:57:38.048Z,69.55
2022-11-12T14:00:54.766Z,69.19
2022-11-12T14:03:58.685Z,68.90
2022-11-12T14:07:28.040Z,69.34
2022-11-12T14:10:32.051Z,69.17
2022-11-12T14:13:44.791Z,69.55
2022-11-12T14:17:10.848Z,69.67
2022-11-12T14:20:36.198Z,70.03
2022-11-12T14:23:41.945Z,70.49
2022-11-12T14:26:46.276Z,70.21
2022-11-12T14:30:24.328Z,71.17
2022-11-12T14:33:30.601Z,71.39
2022-11-12T14:36:34.860Z,71.92
2022-11-12T14:39:42.983Z,72.04
2022-11-12T14:42:46.989Z,72.74
2022-11-12T14:45:54.152Z,72.82
2022-11-12T14:49:36.544Z,73.10
2022-11-12T14:52:47.801Z,73.62
2022-11-12T14:55:54.165Z,74.00
2022-11-12T14:58:58.830Z,74.66
2022-11-12T15:02:36.029Z,74.45
2022-11-12T15:05:53.338Z,75.12
2022-11-12T15:08:59.158Z,75.53
2022-11-12T15:12:20.490Z,75.80
2022-11-12T15:15:24.890Z,76.66
2022-11-12T15:18:40.034Z,76.43
2022-11-12T15:21:50.578Z,76.90
2022-11-12T15:24:55.156Z,77.62
2022-11-12T15:28:26.151Z,77.18
2022-11-12T15:31:30.466Z,77.83
2022-11-12T15:34:40.623Z,78.27
2022-11-12T15:37:44.487Z,78.46
2022-11-12T15:40:57.299Z,78.80
2022-11-12T15:44:04.288Z,79.11
2022-11-12T15:47:15.246Z,79.42
2022-11-12T15:50:22.848Z,79.51
2022-11-12T15:53:28.696Z,80.15
2022-11-12T15:56:33.530Z,80.08
2022-11-12T15:59:37.571Z,80.33
2022-11-12T16:02:42.380Z,80.26
2022-11-12T16:05:49.394Z,80.62
2022-11-12T16:08:53.245Z,80.78
2022-11-12T16:11:58.890Z,81.05
2022-11-12T16:15:03.449Z,81.06
2022-11-12T16:18:11.243Z,81.45
2022-11-12T16:21:20.469Z,81.57
2022-11-12T16:24:25.029Z,81.73
2022-11-12T16:27:32.561Z,81.81
2022-11-12T16:30:37.010Z,81.84
2022-11-12T16:33:41.706Z,82.34
2022-11-12T16:36:47.308Z,82.53
2022-11-12T16:39:51.418Z,82.86
2022-11-12T16:42:55.729Z,82.45
2022-11-12T16:46:00.472Z,83.05
2022-11-12T16:49:04.780Z,94.68
2022-11-12T16:52:09.784Z,87.15
2022-11-12T16:55:14.539Z,85.66
2022-11-12T16:58:18.836Z,84.96
2022-11-12T17:01:25.155Z,84.87
2022-11-12T17:04:31.630Z,84.81
2022-11-12T17:07:35.774Z,85.13
2022-11-12T17:10:39.833Z,85.14
2022-11-12T17:13:44.457Z,84.99
2022-11-12T17:16:48.810Z,84.92
2022-11-12T17:19:53.186Z,85.20
2022-11-12T17:22:57.889Z,85.19
2022-11-12T17:26:05.151Z,85.50
2022-11-12T17:29:09.456Z,85.50
2022-11-12T17:32:13.595Z,85.81
2022-11-12T17:35:17.689Z,85.96
2022-11-12T17:38:21.976Z,85.93
2022-11-12T17:41:30.602Z,85.97
2022-11-12T17:44:35.129Z,86.33
2022-11-12T17:47:41.164Z,85.99
2022-11-12T17:50:46.260Z,86.33
2022-11-12T17:53:53.715Z,86.35
2022-11-12T17:56:57.933Z,86.63
2022-11-12T18:00:03.122Z,86.69
2022-11-12T18:03:07.254Z,86.63
2022-11-12T18:06:13.323Z,86.88
2022-11-12T18:09:17.267Z,86.91
2022-11-12T18:12:21.383Z,86.88
2022-11-12T18:15:25.261Z,87.46
2022-11-12T18:18:29.753Z,87.19
2022-11-12T18:21:34.067Z,87.21
2022-11-12T18:24:38.064Z,87.42
2022-11-12T18:27:42.116Z,87.44
2022-11-12T18:30:46.090Z,87.69
2022-11-12T18:33:50.509Z,87.13
2022-11-12T18:36:54.782Z,87.21
2022-11-12T18:39:58.657Z,87.36
2022-11-12T18:43:02.404Z,87.16
2022-11-12T18:46:10.622Z,87.62
2022-11-12T18:49:14.803Z,87.93
2022-11-12T18:52:19.283Z,88.03
2022-11-12T18:55:23.127Z,87.97
2022-11-12T18:58:34.684Z,88.20
2022-11-12T19:01:39.452Z,88.35
2022-11-12T19:04:45.611Z,88.29
2022-11-12T19:07:49.398Z,88.83
2022-11-12T19:11:04.081Z,89.16
2022-11-12T19:14:08.262Z,89.31
2022-11-12T19:17:12.209Z,89.31
2022-11-12T19:20:16.592Z,89.21
2022-11-12T19:23:20.552Z,89.48
2022-11-12T19:26:24.394Z,89.57
2022-11-12T19:29:28.269Z,89.32
2022-11-12T19:32:32.184Z,89.40
2022-11-12T19:35:39.382Z,89.27
2022-11-12T19:38:43.693Z,89.31
2022-11-12T19:41:48.777Z,89.72
2022-11-12T19:44:52.620Z,89.30
2022-11-12T19:47:56.264Z,89.43
2022-11-12T19:51:08.980Z,89.44
2022-11-12T19:54:12.841Z,89.79
2022-11-12T19:57:16.376Z,89.47
2022-11-12T20:00:20.773Z,89.43
2022-11-12T20:03:26.306Z,89.42
2022-11-12T20:06:31.454Z,89.13
2022-11-12T20:09:35.411Z,88.92
2022-11-12T20:12:42.377Z,88.98
2022-11-12T20:15:46.716Z,88.71
2022-11-12T20:18:54.261Z,88.73
2022-11-12T20:21:58.278Z,88.48
2022-11-12T20:25:02.732Z,88.53
2022-11-12T20:28:07.426Z,88.56
2022-11-12T20:31:19.939Z,88.26
2022-11-12T20:34:24.368Z,88.17
2022-11-12T20:37:29.605Z,88.21
2022-11-12T20:40:33.583Z,88.40
2022-11-12T20:43:37.363Z,88.13
2022-11-12T20:46:41.355Z,87.76
2022-11-12T20:49:47.523Z,88.10
2022-11-12T20:52:51.817Z,88.46
2022-11-12T20:55:55.912Z,88.38
2022-11-12T20:59:00.022Z,88.36
2022-11-12T21:02:04.113Z,88.42
2022-11-12T21:05:08.273Z,88.39
2022-11-12T21:08:12.233Z,88.48
2022-11-12T21:11:18.390Z,88.26
2022-11-12T21:14:22.129Z,88.21
2022-11-12T21:17:26.521Z,88.36
2022-11-12T21:20:30.743Z,87.97
2022-11-12T21:23:42.191Z,87.96
2022-11-12T21:26:48.796Z,88.21
2022-11-12T21:29:52.784Z,88.60
2022-11-12T21:32:57.012Z,88.80
2022-11-12T21:36:01.924Z,88.65
2022-11-12T21:39:06.108Z,88.58
2022-11-12T21:42:10.484Z,88.65
2022-11-12T21:45:14.363Z,88.79
2022-11-12T21:48:18.238Z,88.64
2022-11-12T21:51:24.862Z,88.88
2022-11-12T21:54:28.700Z,88.87
2022-11-12T21:57:32.577Z,89.00
2022-11-12T22:00:41.533Z,89.07
2022-11-12T22:03:48.168Z,89.28
2022-11-12T22:06:52.053Z,89.25
2022-11-12T22:09:57.064Z,89.76
2022-11-12T22:16:27.110Z,89.65
2022-11-12T22:19:31.257Z,89.22
2022-11-12T22:22:35.266Z,89.47
2022-11-12T22:25:38.883Z,89.69
